createdAt,value
2022-11-16T00:00:06.295Z,59.62
2022-11-16T00:01:05.304Z,58.81
2022-11-16T00:02:05.265Z,58.97
2022-11-16T00:03:05.167Z,61.23
2022-11-16T00:04:05.163Z,59.62
2022-11-16T00:05:05.140Z,59.14
2022-11-16T00:06:05.168Z,59.94
2022-11-16T00:07:05.160Z,59.14
2022-11-16T00:08:05.148Z,58.97
2022-11-16T00:09:05.126Z,58.17
2022-11-16T00:10:05.144Z,59.14
2022-11-16T00:11:05.125Z,58.97
2022-11-16T00:12:05.155Z,61.23
2022-11-16T00:13:05.121Z,59.46
2022-11-16T00:14:05.078Z,60.10
2022-11-16T00:15:05.085Z,60.10
2022-11-16T00:16:05.097Z,59.78
2022-11-16T00:17:05.121Z,58.81
2022-11-16T00:18:05.079Z,58.01
2022-11-16T00:19:05.067Z,57.20
2022-11-16T00:20:05.033Z,58.33
2022-11-16T00:21:05.055Z,57.52
2022-11-16T00:22:05.040Z,57.85
2022-11-16T00:23:05.046Z,57.36
2022-11-16T00:24:05.026Z,57.52
2022-11-16T00:25:05.043Z,59.30
2022-11-16T00:26:05.042Z,57.85
2022-11-16T00:27:05.006Z,60.75
2022-11-16T00:28:05.068Z,59.14
2022-11-16T00:29:04.995Z,58.65
2022-11-16T00:30:04.964Z,59.46
2022-11-16T00:31:05.003Z,60.91
2022-11-16T00:32:04.964Z,60.42
2022-11-16T00:33:04.953Z,59.94
2022-11-16T00:34:05.077Z,62.36
2022-11-16T00:35:04.964Z,61.07
2022-11-16T00:36:04.947Z,60.91
2022-11-16T00:37:04.974Z,59.94
2022-11-16T00:38:04.957Z,59.14
2022-11-16T00:39:04.938Z,60.10
2022-11-16T00:40:04.923Z,61.39
2022-11-16T00:41:04.935Z,61.07
2022-11-16T00:42:04.886Z,61.87
2022-11-16T00:43:04.896Z,59.62
2022-11-16T00:44:04.860Z,58.17
2022-11-16T00:45:04.875Z,59.62
2022-11-16T00:46:05.889Z,59.94
2022-11-16T00:47:04.888Z,59.46
2022-11-16T00:48:04.865Z,59.62
2022-11-16T00:49:04.835Z,60.75
2022-11-16T00:50:04.889Z,61.07
2022-11-16T00:51:04.854Z,59.62
2022-11-16T00:52:04.827Z,60.59
2022-11-16T00:53:04.830Z,60.75
2022-11-16T00:54:04.806Z,60.91
2022-11-16T00:55:04.824Z,60.42
2022-11-16T00:56:04.856Z,59.78
2022-11-16T00:57:04.785Z,60.59
2022-11-16T00:58:04.795Z,61.07
2022-11-16T00:59:04.799Z,61.07
2022-11-16T01:00:04.803Z,61.07
2022-11-16T01:01:04.831Z,62.04
2022-11-16T01:02:04.788Z,61.07
2022-11-16T01:03:04.749Z,65.26
2022-11-16T01:04:04.748Z,62.36
2022-11-16T01:05:04.732Z,61.87
2022-11-16T01:06:04.753Z,61.23
2022-11-16T01:07:04.875Z,60.75
2022-11-16T01:08:04.735Z,64.13
2022-11-16T01:09:05.736Z,62.04
2022-11-16T01:10:04.736Z,62.68
2022-11-16T01:11:04.710Z,60.26
2022-11-16T01:12:04.725Z,60.59
2022-11-16T01:13:04.707Z,61.87
2022-11-16T01:14:04.687Z,59.62
2022-11-16T01:15:04.697Z,60.26
2022-11-16T01:16:04.694Z,58.49
2022-11-16T01:17:04.675Z,59.78
2022-11-16T01:18:04.692Z,59.14
2022-11-16T01:19:04.670Z,58.81
2022-11-16T01:20:04.639Z,60.59
2022-11-16T01:21:04.646Z,59.62
2022-11-16T01:22:04.644Z,59.30
2022-11-16T01:23:04.662Z,60.10
2022-11-16T01:24:04.616Z,59.94
2022-11-16T01:25:04.616Z,59.62
2022-11-16T01:26:04.616Z,60.59
2022-11-16T01:27:04.614Z,62.52
2022-11-16T01:28:04.609Z,61.07
2022-11-16T01:29:04.614Z,60.10
2022-11-16T01:30:04.572Z,60.26
2022-11-16T01:31:04.561Z,60.75
2022-11-16T01:32:04.573Z,61.39
2022-11-16T01:33:04.553Z,61.87
2022-11-16T01:34:04.586Z,62.68
2022-11-16T01:35:04.539Z,62.20
2022-11-16T01:36:04.519Z,61.55
2022-11-16T01:37:04.536Z,62.36
2022-11-16T01:38:04.525Z,61.71
2022-11-16T01:39:04.540Z,62.84
2022-11-16T01:40:04.645Z,62.52
2022-11-16T01:41:04.505Z,61.87
2022-11-16T01:42:04.482Z,63.49
2022-11-16T01:43:04.468Z,64.13
2022-11-16T01:44:04.466Z,63.97
2022-11-16T01:45:04.516Z,62.68
2022-11-16T01:46:04.475Z,62.52
2022-11-16T01:47:04.447Z,62.36
2022-11-16T01:48:04.586Z,62.52
2022-11-16T01:49:04.553Z,61.39
2022-11-16T01:50:04.444Z,60.75
2022-11-16T01:51:04.471Z,59.62
2022-11-16T01:52:04.445Z,59.94
2022-11-16T01:53:04.412Z,61.55
2022-11-16T01:54:04.415Z,60.26
2022-11-16T01:55:04.408Z,60.59
2022-11-16T01:56:04.509Z,60.75
2022-11-16T01:57:04.419Z,60.26
2022-11-16T01:58:04.382Z,60.26
2022-11-16T01:59:04.393Z,60.42
2022-11-16T02:00:04.387Z,59.14
2022-11-16T02:01:04.436Z,62.20
2022-11-16T02:02:04.546Z,61.55
2022-11-16T02:03:04.354Z,64.13
2022-11-16T02:04:04.347Z,62.68
2022-11-16T02:05:04.351Z,60.26
2022-11-16T02:06:04.348Z,60.75
2022-11-16T02:07:05.465Z,61.07
2022-11-16T02:08:04.355Z,61.87
2022-11-16T02:09:04.329Z,63.00
2022-11-16T02:10:04.319Z,61.07
2022-11-16T02:11:04.321Z,63.81
2022-11-16T02:12:04.330Z,61.07
2022-11-16T02:13:04.317Z,61.87
2022-11-16T02:14:04.294Z,60.59
2022-11-16T02:15:04.281Z,61.71
2022-11-16T02:16:04.276Z,61.71
2022-11-16T02:17:04.311Z,64.29
2022-11-16T02:18:04.287Z,64.61
2022-11-16T02:19:04.239Z,60.42
2022-11-16T02:20:04.231Z,61.23
2022-11-16T02:21:04.264Z,60.42
2022-11-16T02:22:04.244Z,60.59
2022-11-16T02:23:04.259Z,59.62
2022-11-16T02:24:04.210Z,61.39
2022-11-16T02:25:04.244Z,61.55
2022-11-16T02:26:04.231Z,59.62
2022-11-16T02:27:04.219Z,58.65
2022-11-16T02:28:04.209Z,60.10
2022-11-16T02:29:04.211Z,64.94
2022-11-16T02:30:04.182Z,62.84
2022-11-16T02:31:04.167Z,60.75
2022-11-16T02:32:04.194Z,59.94
2022-11-16T02:33:04.215Z,59.46
2022-11-16T02:34:04.135Z,59.30
2022-11-16T02:35:04.166Z,59.30
2022-11-16T02:36:04.127Z,58.81
2022-11-16T02:37:04.135Z,59.30
2022-11-16T02:38:04.179Z,59.78
2022-11-16T02:39:04.121Z,58.81
2022-11-16T02:40:04.124Z,60.26
2022-11-16T02:41:04.126Z,60.10
2022-11-16T02:42:04.085Z,63.16
2022-11-16T02:43:04.117Z,59.94
2022-11-16T02:44:04.085Z,59.46
2022-11-16T02:45:04.083Z,59.14
2022-11-16T02:46:04.070Z,59.46
2022-11-16T02:47:04.059Z,59.78
2022-11-16T02:48:04.064Z,59.14
2022-11-16T02:49:04.294Z,59.94
2022-11-16T02:50:04.074Z,58.65
2022-11-16T02:51:04.024Z,59.30
2022-11-16T02:52:04.032Z,59.46
2022-11-16T02:53:04.015Z,59.14
2022-11-16T02:54:04.061Z,59.94
2022-11-16T02:55:04.014Z,60.10
2022-11-16T02:56:03.994Z,60.10
2022-11-16T02:57:04.003Z,59.46
2022-11-16T02:58:04.000Z,59.46
2022-11-16T02:59:03.985Z,60.10
2022-11-16T03:00:04.108Z,60.10
2022-11-16T03:01:04.021Z,62.68
2022-11-16T03:02:03.992Z,62.20
2022-11-16T03:03:03.940Z,62.20
2022-11-16T03:04:03.955Z,62.36
2022-11-16T03:05:03.977Z,64.29
2022-11-16T03:06:03.933Z,63.65
2022-11-16T03:07:04.001Z,63.65
2022-11-16T03:08:03.916Z,63.33
2022-11-16T03:09:03.928Z,62.52
2022-11-16T03:10:03.903Z,61.71
2022-11-16T03:11:03.970Z,61.87
2022-11-16T03:12:03.898Z,61.87
2022-11-16T03:13:03.924Z,61.55
2022-11-16T03:14:03.879Z,62.52
2022-11-16T03:15:03.913Z,61.55
2022-11-16T03:16:03.880Z,60.59
2022-11-16T03:17:03.879Z,60.42
2022-11-16T03:18:03.888Z,60.42
2022-11-16T03:19:03.864Z,62.04
2022-11-16T03:20:03.856Z,61.23
2022-11-16T03:21:03.851Z,61.55
2022-11-16T03:22:03.846Z,63.16
2022-11-16T03:23:03.819Z,61.23
2022-11-16T03:24:03.819Z,61.71
2022-11-16T03:25:03.806Z,62.68
2022-11-16T03:26:03.835Z,63.16
2022-11-16T03:27:03.911Z,63.00
2022-11-16T03:28:03.803Z,62.36
2022-11-16T03:29:03.812Z,62.20
2022-11-16T03:30:03.786Z,64.94
2022-11-16T03:31:03.763Z,62.68
2022-11-16T03:32:03.799Z,62.20
2022-11-16T03:33:03.811Z,63.33
2022-11-16T03:34:03.768Z,65.26
2022-11-16T03:35:03.736Z,63.97
2022-11-16T03:36:03.776Z,62.04
2022-11-16T03:37:03.743Z,61.71
2022-11-16T03:38:03.780Z,67.19
2022-11-16T03:39:03.739Z,62.52
2022-11-16T03:40:03.701Z,65.10
2022-11-16T03:41:03.702Z,63.16
2022-11-16T03:42:03.733Z,62.52
2022-11-16T03:43:03.681Z,63.65
2022-11-16T03:44:03.818Z,62.36
2022-11-16T03:45:03.784Z,61.39
2022-11-16T03:46:03.681Z,62.52
2022-11-16T03:47:03.670Z,62.36
2022-11-16T03:48:03.675Z,63.49
2022-11-16T03:49:03.793Z,65.90
2022-11-16T03:50:03.692Z,64.45
2022-11-16T03:51:03.643Z,64.94
2022-11-16T03:52:03.637Z,68.48
2022-11-16T03:53:03.681Z,67.19
2022-11-16T03:54:03.678Z,68.00
2022-11-16T03:55:03.622Z,66.39
2022-11-16T03:56:03.607Z,67.35
2022-11-16T03:57:03.607Z,68.32
2022-11-16T03:58:03.595Z,68.00
2022-11-16T03:59:04.602Z,69.45
2022-11-16T04:00:03.649Z,70.09
2022-11-16T04:01:03.710Z,69.93
2022-11-16T04:02:03.587Z,70.25
2022-11-16T04:03:03.548Z,70.25
2022-11-16T04:04:03.556Z,68.48
2022-11-16T04:05:03.534Z,68.80
2022-11-16T04:06:03.558Z,68.48
2022-11-16T04:07:03.584Z,70.09
2022-11-16T04:08:03.541Z,68.16
2022-11-16T04:09:03.526Z,68.16
2022-11-16T04:10:03.547Z,66.39
2022-11-16T04:11:03.519Z,67.51
2022-11-16T04:12:03.514Z,67.19
2022-11-16T04:13:03.512Z,66.55
2022-11-16T04:14:07.999Z,67.35
2022-11-16T04:15:05.014Z,66.39
2022-11-16T04:16:03.498Z,66.71
2022-11-16T04:17:03.491Z,68.00
2022-11-16T04:18:03.473Z,69.61
2022-11-16T04:19:03.458Z,69.29
2022-11-16T04:20:03.436Z,65.90
2022-11-16T04:21:03.447Z,66.71
2022-11-16T04:22:03.486Z,68.96
2022-11-16T04:23:03.417Z,67.84
2022-11-16T04:24:03.476Z,68.00
2022-11-16T04:25:03.440Z,67.51
2022-11-16T04:26:03.407Z,68.16
2022-11-16T04:27:03.415Z,72.35
2022-11-16T04:28:03.422Z,66.39
2022-11-16T04:29:03.403Z,66.87
2022-11-16T04:30:03.392Z,65.42
2022-11-16T04:31:03.404Z,66.23
2022-11-16T04:32:03.403Z,64.61
2022-11-16T04:33:03.473Z,69.13
2022-11-16T04:34:04.017Z,67.03
2022-11-16T04:35:03.339Z,67.68
2022-11-16T04:36:03.356Z,69.13
2022-11-16T04:37:03.330Z,64.45
2022-11-16T04:38:03.326Z,64.78
2022-11-16T04:39:03.352Z,65.10
2022-11-16T04:40:03.351Z,68.16
2022-11-16T04:41:03.314Z,70.25
2022-11-16T04:42:03.319Z,65.10
2022-11-16T04:43:03.302Z,66.23
2022-11-16T04:44:03.322Z,65.58
2022-11-16T04:45:03.291Z,68.32
2022-11-16T04:46:03.310Z,66.71
2022-11-16T04:47:03.277Z,67.68
2022-11-16T04:48:03.344Z,69.45
2022-11-16T04:49:03.249Z,68.16
2022-11-16T04:50:03.268Z,69.45
2022-11-16T04:51:03.251Z,67.84
2022-11-16T04:52:03.229Z,67.03
2022-11-16T04:53:03.243Z,66.39
2022-11-16T04:54:03.215Z,66.23
2022-11-16T04:55:03.241Z,67.68
2022-11-16T04:56:03.245Z,69.93
2022-11-16T04:57:03.234Z,66.39
2022-11-16T04:58:03.235Z,65.74
2022-11-16T04:59:03.211Z,67.35
2022-11-16T05:00:03.197Z,66.87
2022-11-16T05:01:03.257Z,66.87
2022-11-16T05:02:03.175Z,67.84
2022-11-16T05:03:03.185Z,70.90
2022-11-16T05:04:03.171Z,68.96
2022-11-16T05:05:03.168Z,67.19
2022-11-16T05:06:03.172Z,68.96
2022-11-16T05:07:03.208Z,71.22
2022-11-16T05:08:03.145Z,69.61
2022-11-16T05:09:03.128Z,69.13
2022-11-16T05:10:03.126Z,68.80
2022-11-16T05:11:03.138Z,69.93
2022-11-16T05:12:03.195Z,69.45
2022-11-16T05:13:03.109Z,68.48
2022-11-16T05:14:03.089Z,68.32
2022-11-16T05:15:03.083Z,67.35
2022-11-16T05:16:03.080Z,68.00
2022-11-16T05:17:03.099Z,69.45
2022-11-16T05:18:03.091Z,67.51
2022-11-16T05:19:03.067Z,68.32
2022-11-16T05:20:03.070Z,74.93
2022-11-16T05:21:03.060Z,65.10
2022-11-16T05:22:03.079Z,68.00
2022-11-16T05:23:03.047Z,65.90
2022-11-16T05:24:03.051Z,68.48
2022-11-16T05:25:03.022Z,65.10
2022-11-16T05:26:03.031Z,69.77
2022-11-16T05:27:03.051Z,68.80
2022-11-16T05:28:03.048Z,70.42
2022-11-16T05:29:03.028Z,66.87
2022-11-16T05:30:03.021Z,67.84
2022-11-16T05:31:03.317Z,73.15
2022-11-16T05:32:03.011Z,68.80
2022-11-16T05:33:03.098Z,68.48
2022-11-16T05:34:02.973Z,68.64
2022-11-16T05:35:02.949Z,69.45
2022-11-16T05:36:03.300Z,70.25
2022-11-16T05:37:02.983Z,71.38
2022-11-16T05:38:03.059Z,74.93
2022-11-16T05:39:02.951Z,73.32
2022-11-16T05:40:03.030Z,71.06
2022-11-16T05:41:02.942Z,70.90
2022-11-16T05:42:02.929Z,71.54
2022-11-16T05:43:02.918Z,70.58
2022-11-16T05:44:02.917Z,71.06
2022-11-16T05:45:02.908Z,71.06
2022-11-16T05:46:02.874Z,70.90
2022-11-16T05:47:02.908Z,73.15
2022-11-16T05:48:02.895Z,70.42
2022-11-16T05:49:02.903Z,70.42
2022-11-16T05:50:02.862Z,70.09
2022-11-16T05:51:02.880Z,69.45
2022-11-16T05:52:02.861Z,70.42
2022-11-16T05:53:02.870Z,65.90
2022-11-16T05:54:02.814Z,66.23
2022-11-16T05:55:02.859Z,68.00
2022-11-16T05:56:02.868Z,67.68
2022-11-16T05:57:02.835Z,67.19
2022-11-16T05:58:02.822Z,66.23
2022-11-16T05:59:02.815Z,65.90
2022-11-16T06:00:02.837Z,69.93
2022-11-16T06:01:02.827Z,69.45
2022-11-16T06:02:02.808Z,70.74
2022-11-16T06:03:02.910Z,71.87
2022-11-16T06:04:02.793Z,64.61
2022-11-16T06:05:02.801Z,64.13
2022-11-16T06:06:02.871Z,69.45
2022-11-16T06:07:02.805Z,71.38
2022-11-16T06:08:02.740Z,72.51
2022-11-16T06:09:02.764Z,66.55
2022-11-16T06:10:02.761Z,66.39
2022-11-16T06:11:02.761Z,66.55
2022-11-16T06:12:02.727Z,70.42
2022-11-16T06:13:02.731Z,67.35
2022-11-16T06:14:02.737Z,68.48
2022-11-16T06:15:02.733Z,68.32
2022-11-16T06:16:03.020Z,66.06
2022-11-16T06:17:02.832Z,71.38
2022-11-16T06:18:02.667Z,66.39
2022-11-16T06:19:02.672Z,66.55
2022-11-16T06:20:02.677Z,69.13
2022-11-16T06:21:02.671Z,64.94
2022-11-16T06:22:02.693Z,67.51
2022-11-16T06:23:02.646Z,64.78
2022-11-16T06:24:02.688Z,66.06
2022-11-16T06:25:02.657Z,72.03
2022-11-16T06:26:02.624Z,64.94
2022-11-16T06:27:02.652Z,66.87
2022-11-16T06:28:07.457Z,71.54
2022-11-16T06:29:04.620Z,63.65
2022-11-16T06:30:02.625Z,73.48
2022-11-16T06:31:02.608Z,68.96
2022-11-16T06:32:02.885Z,71.54
2022-11-16T06:33:02.608Z,68.16
2022-11-16T06:34:02.589Z,69.45
2022-11-16T06:35:02.598Z,65.58
2022-11-16T06:36:02.577Z,71.22
2022-11-16T06:37:02.567Z,70.90
2022-11-16T06:38:02.587Z,68.00
2022-11-16T06:39:02.664Z,70.90
2022-11-16T06:40:02.556Z,67.03
2022-11-16T06:41:02.555Z,69.45
2022-11-16T06:42:02.555Z,69.77
2022-11-16T06:43:02.570Z,68.64
2022-11-16T06:44:02.531Z,66.39
2022-11-16T06:45:02.543Z,64.94
2022-11-16T06:46:02.491Z,62.52
2022-11-16T06:47:02.514Z,71.54
2022-11-16T06:48:02.736Z,65.42
2022-11-16T06:49:02.483Z,74.28
2022-11-16T06:50:02.501Z,62.84
2022-11-16T06:51:02.507Z,68.16
2022-11-16T06:52:02.478Z,73.64
2022-11-16T06:53:02.459Z,68.48
2022-11-16T06:54:02.444Z,69.93
2022-11-16T06:55:02.468Z,64.61
2022-11-16T06:56:02.472Z,67.84
2022-11-16T06:57:02.467Z,66.71
2022-11-16T06:58:02.437Z,69.29
2022-11-16T06:59:02.425Z,65.26
2022-11-16T07:00:02.445Z,64.78
2022-11-16T07:01:02.467Z,69.61
2022-11-16T07:02:02.492Z,73.15
2022-11-16T07:03:02.416Z,59.62
2022-11-16T07:04:04.519Z,61.23
2022-11-16T07:05:03.749Z,61.71
2022-11-16T07:06:02.432Z,71.87
2022-11-16T07:07:02.450Z,64.13
2022-11-16T07:08:02.392Z,65.42
2022-11-16T07:09:02.397Z,70.58
2022-11-16T07:10:02.376Z,62.04
2022-11-16T07:11:04.301Z,65.42
2022-11-16T07:12:02.385Z,64.45
2022-11-16T07:13:02.359Z,64.78
2022-11-16T07:14:02.330Z,63.49
2022-11-16T07:15:02.300Z,75.41
2022-11-16T07:16:03.321Z,68.16
2022-11-16T07:17:08.070Z,70.90
2022-11-16T07:18:03.307Z,69.45
2022-11-16T07:19:02.332Z,63.65
2022-11-16T07:20:02.378Z,61.23
2022-11-16T07:21:02.335Z,65.10
2022-11-16T07:22:02.299Z,61.55
2022-11-16T07:23:02.295Z,64.45
2022-11-16T07:24:02.266Z,63.49
2022-11-16T07:25:02.264Z,61.87
2022-11-16T07:26:02.258Z,71.22
2022-11-16T07:27:02.243Z,64.45
2022-11-16T07:28:02.262Z,58.33
2022-11-16T07:29:02.228Z,59.94
2022-11-16T07:30:02.359Z,67.35
2022-11-16T07:31:02.214Z,65.90
2022-11-16T07:32:02.216Z,71.06
2022-11-16T07:33:02.193Z,77.34
2022-11-16T07:34:02.218Z,66.39
2022-11-16T07:35:02.199Z,61.55
2022-11-16T07:36:02.297Z,69.77
2022-11-16T07:37:02.204Z,70.09
2022-11-16T07:38:02.156Z,67.19
2022-11-16T07:39:02.177Z,66.87
2022-11-16T07:40:03.158Z,62.84
2022-11-16T07:41:02.183Z,63.16
2022-11-16T07:42:02.126Z,63.81
2022-11-16T07:43:02.166Z,65.90
2022-11-16T07:44:02.141Z,74.77
2022-11-16T07:45:02.262Z,71.06
2022-11-16T07:46:28.302Z,69.93
2022-11-16T07:47:03.159Z,68.64
2022-11-16T07:48:02.136Z,67.84
2022-11-16T07:49:04.000Z,65.10
2022-11-16T07:50:02.118Z,64.61
2022-11-16T07:51:02.107Z,68.16
2022-11-16T07:52:02.387Z,67.68
2022-11-16T07:53:02.074Z,65.26
2022-11-16T07:54:02.048Z,65.26
2022-11-16T07:55:02.071Z,71.38
2022-11-16T07:56:02.135Z,65.42
2022-11-16T07:57:02.056Z,64.13
2022-11-16T07:58:02.040Z,64.78
2022-11-16T07:59:02.041Z,67.51
2022-11-16T08:00:02.084Z,63.81
2022-11-16T08:01:02.067Z,64.94
2022-11-16T08:02:02.088Z,64.78
2022-11-16T08:03:01.999Z,67.51
2022-11-16T08:04:03.562Z,62.04
2022-11-16T08:05:02.039Z,65.10
2022-11-16T08:06:02.003Z,63.16
2022-11-16T08:07:02.088Z,69.61
2022-11-16T08:08:02.062Z,61.87
2022-11-16T08:09:01.988Z,71.06
2022-11-16T08:10:02.804Z,70.90
2022-11-16T08:11:01.935Z,69.45
2022-11-16T08:12:01.960Z,71.22
2022-11-16T08:13:01.974Z,62.36
2022-11-16T08:14:01.959Z,64.45
2022-11-16T08:15:01.958Z,66.87
2022-11-16T08:16:01.919Z,62.04
2022-11-16T08:17:01.924Z,69.45
2022-11-16T08:18:01.939Z,63.65
2022-11-16T08:19:01.930Z,68.16
2022-11-16T08:20:01.892Z,70.90
2022-11-16T08:21:01.896Z,65.10
2022-11-16T08:22:01.870Z,71.22
2022-11-16T08:23:01.902Z,65.10
2022-11-16T08:24:01.907Z,61.07
2022-11-16T08:25:01.885Z,72.35
2022-11-16T08:26:01.863Z,68.48
2022-11-16T08:27:01.861Z,64.78
2022-11-16T08:28:01.847Z,62.68
2022-11-16T08:29:01.868Z,63.49
2022-11-16T08:30:01.818Z,61.23
2022-11-16T08:31:01.830Z,69.77
2022-11-16T08:32:01.833Z,76.05
2022-11-16T08:33:01.814Z,66.71
2022-11-16T08:34:01.895Z,66.23
2022-11-16T08:35:01.785Z,63.97
2022-11-16T08:36:01.785Z,58.81
2022-11-16T08:37:01.797Z,60.42
2022-11-16T08:38:01.771Z,60.91
2022-11-16T08:39:01.786Z,64.78
2022-11-16T08:40:01.882Z,72.83
2022-11-16T08:41:01.764Z,63.65
2022-11-16T08:42:01.769Z,62.36
2022-11-16T08:43:01.740Z,61.39
2022-11-16T08:44:01.734Z,62.68
2022-11-16T08:45:01.838Z,67.51
2022-11-16T08:46:01.728Z,63.16
2022-11-16T08:47:01.726Z,63.49
2022-11-16T08:48:04.181Z,64.45
2022-11-16T08:49:01.723Z,63.33
2022-11-16T08:50:20.636Z,68.16
2022-11-16T08:51:16.865Z,68.48
2022-11-16T08:52:03.688Z,63.97
2022-11-16T08:53:01.679Z,67.19
2022-11-16T08:54:01.671Z,72.83
2022-11-16T08:55:01.674Z,61.87
2022-11-16T08:56:01.802Z,71.54
2022-11-16T08:57:01.686Z,73.64
2022-11-16T08:58:01.637Z,71.06
2022-11-16T08:59:01.655Z,61.07
2022-11-16T09:00:01.647Z,67.19
2022-11-16T09:01:01.729Z,61.07
2022-11-16T09:02:01.718Z,60.75
2022-11-16T09:03:01.635Z,65.90
2022-11-16T09:04:02.581Z,66.23
2022-11-16T09:05:01.611Z,68.96
2022-11-16T09:06:01.593Z,65.58
2022-11-16T09:07:33.763Z,66.71
2022-11-16T09:08:01.599Z,68.00
2022-11-16T09:09:01.625Z,65.90
2022-11-16T09:10:01.601Z,63.65
2022-11-16T09:11:02.563Z,58.97
2022-11-16T09:12:37.160Z,62.84
2022-11-16T09:13:01.588Z,82.82
2022-11-16T09:14:01.541Z,68.48
2022-11-16T09:15:01.542Z,67.51
2022-11-16T09:16:01.545Z,71.38
2022-11-16T09:17:01.525Z,71.06
2022-11-16T09:18:01.551Z,65.10
2022-11-16T09:19:01.540Z,59.30
2022-11-16T09:20:01.538Z,60.10
2022-11-16T09:21:01.511Z,68.00
2022-11-16T09:22:01.513Z,67.19
2022-11-16T09:23:01.518Z,72.83
2022-11-16T09:24:01.575Z,62.84
2022-11-16T09:25:01.492Z,66.87
2022-11-16T09:26:01.486Z,67.19
2022-11-16T09:27:01.486Z,60.26
2022-11-16T09:28:01.475Z,58.65
2022-11-16T09:29:01.472Z,65.10
2022-11-16T09:30:01.452Z,61.07
2022-11-16T09:31:01.441Z,66.39
2022-11-16T09:32:01.441Z,59.78
2022-11-16T09:33:01.422Z,71.38
2022-11-16T09:34:01.434Z,62.20
2022-11-16T09:35:01.476Z,64.94
2022-11-16T09:36:01.429Z,70.09
2022-11-16T09:37:01.422Z,61.71
2022-11-16T09:38:01.412Z,65.90
2022-11-16T09:39:31.821Z,65.26
2022-11-16T09:40:03.407Z,63.97
2022-11-16T09:41:01.373Z,65.10
2022-11-16T09:42:01.393Z,63.49
2022-11-16T09:43:01.394Z,67.51
2022-11-16T09:44:01.449Z,61.07
2022-11-16T09:45:01.369Z,68.64
2022-11-16T09:46:01.439Z,60.42
2022-11-16T09:47:01.341Z,63.97
2022-11-16T09:48:01.347Z,63.65
2022-11-16T09:49:01.331Z,61.07
2022-11-16T09:50:04.034Z,66.06
2022-11-16T09:51:23.335Z,64.94
2022-11-16T09:52:01.314Z,68.48
2022-11-16T09:53:01.301Z,69.93
2022-11-16T09:54:01.290Z,64.78
2022-11-16T09:55:01.295Z,65.90
2022-11-16T09:56:01.304Z,62.36
2022-11-16T09:57:01.275Z,66.87
2022-11-16T09:58:01.273Z,67.35
2022-11-16T09:59:01.266Z,67.68
2022-11-16T10:00:01.354Z,66.39
2022-11-16T10:01:01.313Z,64.94
2022-11-16T10:02:01.245Z,65.42
2022-11-16T10:03:01.271Z,65.10
2022-11-16T10:04:01.228Z,63.65
2022-11-16T10:05:01.239Z,63.49
2022-11-16T10:06:01.234Z,68.32
2022-11-16T10:07:01.238Z,62.84
2022-11-16T10:08:01.209Z,66.87
2022-11-16T10:09:01.217Z,62.68
2022-11-16T10:10:01.216Z,63.81
2022-11-16T10:11:01.203Z,59.94
2022-11-16T10:12:01.190Z,60.42
2022-11-16T10:13:01.179Z,67.03
2022-11-16T10:14:04.249Z,63.49
2022-11-16T10:15:02.208Z,66.39
2022-11-16T10:16:01.266Z,62.68
2022-11-16T10:17:01.163Z,60.59
2022-11-16T10:18:01.165Z,60.75
2022-11-16T10:19:01.146Z,66.71
2022-11-16T10:20:01.184Z,66.71
2022-11-16T10:21:01.160Z,62.84
2022-11-16T10:22:01.126Z,61.07
2022-11-16T10:23:01.677Z,60.91
2022-11-16T10:24:01.110Z,67.51
2022-11-16T10:25:02.132Z,63.16
2022-11-16T10:26:01.221Z,66.87
2022-11-16T10:27:01.164Z,64.45
2022-11-16T10:28:01.098Z,60.75
2022-11-16T10:29:01.123Z,58.17
2022-11-16T10:30:01.086Z,59.94
2022-11-16T10:31:01.083Z,64.78
2022-11-16T10:32:01.167Z,60.10
2022-11-16T10:33:01.085Z,62.20
2022-11-16T10:34:01.066Z,59.14
2022-11-16T10:35:01.067Z,59.94
2022-11-16T10:36:01.042Z,68.80
2022-11-16T10:37:01.089Z,61.07
2022-11-16T10:38:01.028Z,61.55
2022-11-16T10:39:01.031Z,59.94
2022-11-16T10:40:01.025Z,61.71
2022-11-16T10:41:01.031Z,59.30
2022-11-16T10:42:06.083Z,60.59
2022-11-16T10:43:03.812Z,69.29
2022-11-16T10:44:01.009Z,63.33
2022-11-16T10:45:00.987Z,60.91
2022-11-16T10:46:00.981Z,62.68
2022-11-16T10:47:00.976Z,61.71
2022-11-16T10:48:01.053Z,59.62
2022-11-16T10:49:01.019Z,61.23
2022-11-16T10:50:00.953Z,62.20
2022-11-16T10:51:00.938Z,61.55
2022-11-16T10:52:01.027Z,65.26
2022-11-16T10:53:00.958Z,66.39
2022-11-16T10:54:01.048Z,61.39
2022-11-16T10:55:00.927Z,59.46
2022-11-16T10:56:00.921Z,64.45
2022-11-16T10:57:00.900Z,65.26
2022-11-16T10:58:00.891Z,62.20
2022-11-16T10:59:00.876Z,59.30
2022-11-16T11:00:00.917Z,57.85
2022-11-16T11:01:00.977Z,63.49
2022-11-16T11:02:00.980Z,61.87
2022-11-16T11:03:00.874Z,62.52
2022-11-16T11:04:00.945Z,62.04
2022-11-16T11:05:00.879Z,65.42
2022-11-16T11:06:00.846Z,58.81
2022-11-16T11:07:00.863Z,62.52
2022-11-16T11:08:00.824Z,64.94
2022-11-16T11:09:00.891Z,61.39
2022-11-16T11:10:00.844Z,61.23
2022-11-16T11:11:00.854Z,61.71
2022-11-16T11:12:00.815Z,57.04
2022-11-16T11:13:00.815Z,67.84
2022-11-16T11:14:00.803Z,69.93
2022-11-16T11:15:00.796Z,58.65
2022-11-16T11:16:01.195Z,60.26
2022-11-16T11:17:00.786Z,61.23
2022-11-16T11:18:00.783Z,58.81
2022-11-16T11:19:00.781Z,58.65
2022-11-16T11:20:00.769Z,60.75
2022-11-16T11:21:00.769Z,60.59
2022-11-16T11:22:00.785Z,60.91
2022-11-16T11:23:00.738Z,59.62
2022-11-16T11:24:29.418Z,64.78
2022-11-16T11:25:02.743Z,58.97
2022-11-16T11:26:00.735Z,68.32
2022-11-16T11:27:00.753Z,60.59
2022-11-16T11:28:00.727Z,58.65
2022-11-16T11:29:01.272Z,71.06
2022-11-16T11:30:00.706Z,69.13
2022-11-16T11:31:00.706Z,65.10
2022-11-16T11:32:00.699Z,59.78
2022-11-16T11:33:01.702Z,65.26
2022-11-16T11:34:01.675Z,58.65
2022-11-16T11:35:00.675Z,59.94
2022-11-16T11:36:00.787Z,62.04
2022-11-16T11:37:00.674Z,68.16
2022-11-16T11:38:07.224Z,59.30
2022-11-16T11:39:02.657Z,58.65
2022-11-16T11:40:00.661Z,63.65
2022-11-16T11:41:00.635Z,60.75
2022-11-16T11:42:00.632Z,60.59
2022-11-16T11:43:00.614Z,63.81
2022-11-16T11:44:00.651Z,55.59
2022-11-16T11:45:00.601Z,57.36
2022-11-16T11:46:00.605Z,64.78
2022-11-16T11:48:01.642Z,66.71
2022-11-16T11:49:00.621Z,59.78
2022-11-16T11:50:01.155Z,60.91
2022-11-16T11:51:01.324Z,60.42
2022-11-16T11:52:00.669Z,62.04
2022-11-16T11:53:00.575Z,58.49
2022-11-16T11:54:00.587Z,58.01
2022-11-16T11:55:00.677Z,65.26
2022-11-16T11:56:00.555Z,61.07
2022-11-16T11:57:00.568Z,57.20
2022-11-16T11:58:00.554Z,56.40
2022-11-16T11:59:00.553Z,57.52
2022-11-16T12:00:00.670Z,56.24
2022-11-16T12:01:00.530Z,63.65
2022-11-16T12:02:00.563Z,59.94
2022-11-16T12:03:00.593Z,58.65
2022-11-16T12:04:00.554Z,59.30
2022-11-16T12:05:00.499Z,58.97
2022-11-16T12:06:00.526Z,59.30
2022-11-16T12:07:00.570Z,65.10
2022-11-16T12:08:00.553Z,67.03
2022-11-16T12:09:00.485Z,69.61
2022-11-16T12:10:00.520Z,59.30
2022-11-16T12:11:01.614Z,60.10
2022-11-16T12:12:00.485Z,64.13
2022-11-16T12:13:00.464Z,55.43
2022-11-16T12:14:00.455Z,60.26
2022-11-16T12:15:00.444Z,63.33
2022-11-16T12:16:00.475Z,61.55
2022-11-16T12:17:00.534Z,59.30
2022-11-16T12:18:00.415Z,58.17
2022-11-16T12:19:00.404Z,67.51
2022-11-16T12:20:00.430Z,58.97
2022-11-16T12:21:00.405Z,58.97
2022-11-16T12:22:00.704Z,65.42
2022-11-16T12:23:04.027Z,59.78
2022-11-16T12:24:01.384Z,58.49
2022-11-16T12:25:00.386Z,59.14
2022-11-16T12:26:00.383Z,59.14
2022-11-16T12:27:00.377Z,60.59
2022-11-16T12:28:00.391Z,68.48
2022-11-16T12:29:00.351Z,65.90
2022-11-16T12:30:00.393Z,63.00
2022-11-16T12:31:00.348Z,63.33
2022-11-16T12:32:00.340Z,61.07
2022-11-16T12:33:00.555Z,64.78
2022-11-16T12:34:00.313Z,58.81
2022-11-16T12:35:01.358Z,63.00
2022-11-16T12:36:00.319Z,62.36
2022-11-16T12:37:00.338Z,65.90
2022-11-16T12:38:00.363Z,66.55
2022-11-16T12:39:00.318Z,61.55
2022-11-16T12:40:00.392Z,60.10
2022-11-16T12:41:00.335Z,56.72
2022-11-16T12:42:00.275Z,59.30
2022-11-16T12:43:00.291Z,59.30
2022-11-16T12:44:00.289Z,62.84
2022-11-16T12:45:00.270Z,65.58
2022-11-16T12:46:00.323Z,71.06
2022-11-16T12:47:00.271Z,63.33
2022-11-16T12:48:00.252Z,59.78
2022-11-16T12:49:00.257Z,60.59
2022-11-16T12:50:00.303Z,67.35
2022-11-16T12:51:00.237Z,64.94
2022-11-16T12:52:00.229Z,67.51
2022-11-16T12:53:00.224Z,65.10